ポルト・アレグレ の空港の天気 - METARとTAF

ポルト・アレグレ国際空港 ( SBPA / POA ) - ブラジル リオグランデ・ド・スル州ポルト・アレグレ
飛行場実況気象(Metar)
観測時間12/14 04:00 BRST (12/14 06:00 UTC)
風向・風速東 4m/s
視程10km以上
天気現象
なし
気温23℃
湿度89%
気圧1006hPa
METARSBPA 140600Z 09007KT CAVOK 23/21 Q1006
過去の天気等 Google飛行場航空写真 Wunderground天気予報

過去48時間のMETAR

飛行場予報(TAF)
発表時間: 12/14 00:00 BRST (12/14 02:00 UTC)
予報対象時間: 14日4時 BRST ~ 15日4時 BRST
風向・風速東 3m/s
視程10km以上
なし
14日9時 BRST ~ 14日11時 BRST に徐々に
風向・風速北北西 5m/s
14日16時 BRST ~ 14日18時 BRST に徐々に
視程10km以上
全天の4割程度の雲 雲底高度 1220m
少しの塔状積雲 雲底高度 1370m
14日20時 BRST ~ 14日22時 BRST に徐々に
風向・風速北北東 3m/s
TAF SBPA 140200Z 1406/1506 08005KT CAVOK TN23/1408Z TX36/1418Z
BECMG 1411/1413 33010KT
BECMG 1418/1420 9999 SCT040 FEW045TCU
BECMG 1422/1424 03005K T FEW040 RMK PDW